sensor_id;sensor_type;location;lat;lon;timestamp;P1;durP1;ratioP1;P2;durP2;ratioP2
40755;SDS011;26461;45.630;9.418;2024-03-02T00:00:34;5.53;;;3.28;;
40755;SDS011;26461;45.630;9.418;2024-03-02T00:03:45;4.65;;;3.53;;
40755;SDS011;26461;45.630;9.418;2024-03-02T00:06:53;3.13;;;2.63;;
40755;SDS011;26461;45.630;9.418;2024-03-02T00:10:07;3.28;;;2.75;;
40755;SDS011;26461;45.630;9.418;2024-03-02T00:13:18;4.30;;;3.75;;
40755;SDS011;26461;45.630;9.418;2024-03-02T00:16:32;4.60;;;3.45;;
40755;SDS011;26461;45.630;9.418;2024-03-02T00:19:38;3.60;;;2.92;;
40755;SDS011;26461;45.630;9.418;2024-03-02T00:22:49;3.42;;;2.90;;
40755;SDS011;26461;45.630;9.418;2024-03-02T00:26:00;6.03;;;4.22;;
40755;SDS011;26461;45.630;9.418;2024-03-02T00:29:11;5.10;;;3.53;;
40755;SDS011;26461;45.630;9.418;2024-03-02T00:32:25;6.03;;;3.53;;
40755;SDS011;26461;45.630;9.418;2024-03-02T00:35:34;6.43;;;4.30;;
40755;SDS011;26461;45.630;9.418;2024-03-02T00:38:49;5.30;;;3.85;;
40755;SDS011;26461;45.630;9.418;2024-03-02T00:42:00;5.30;;;3.58;;
40755;SDS011;26461;45.630;9.418;2024-03-02T00:45:10;3.70;;;3.40;;
40755;SDS011;26461;45.630;9.418;2024-03-02T00:48:20;8.90;;;3.70;;
40755;SDS011;26461;45.630;9.418;2024-03-02T00:51:31;3.10;;;2.67;;
40755;SDS011;26461;45.630;9.418;2024-03-02T00:54:38;4.03;;;3.20;;
40755;SDS011;26461;45.630;9.418;2024-03-02T00:57:49;4.28;;;2.70;;
40755;SDS011;26461;45.630;9.418;2024-03-02T01:00:59;3.08;;;2.33;;
40755;SDS011;26461;45.630;9.418;2024-03-02T01:04:09;3.80;;;2.40;;
40755;SDS011;26461;45.630;9.418;2024-03-02T01:07:15;3.25;;;2.78;;
40755;SDS011;26461;45.630;9.418;2024-03-02T01:10:25;2.72;;;2.20;;
40755;SDS011;26461;45.630;9.418;2024-03-02T01:13:36;4.55;;;2.78;;
40755;SDS011;26461;45.630;9.418;2024-03-02T01:16:46;3.92;;;2.80;;
40755;SDS011;26461;45.630;9.418;2024-03-02T01:19:52;5.22;;;3.05;;
40755;SDS011;26461;45.630;9.418;2024-03-02T01:23:02;3.80;;;2.40;;
40755;SDS011;26461;45.630;9.418;2024-03-02T01:26:12;3.13;;;2.50;;
40755;SDS011;26461;45.630;9.418;2024-03-02T01:29:23;5.40;;;2.67;;
40755;SDS011;26461;45.630;9.418;2024-03-02T01:32:31;3.55;;;2.40;;
40755;SDS011;26461;45.630;9.418;2024-03-02T01:35:42;3.30;;;2.40;;
40755;SDS011;26461;45.630;9.418;2024-03-02T01:38:52;3.65;;;2.78;;
40755;SDS011;26461;45.630;9.418;2024-03-02T01:42:02;2.83;;;2.65;;
40755;SDS011;26461;45.630;9.418;2024-03-02T01:45:12;5.15;;;3.00;;
40755;SDS011;26461;45.630;9.418;2024-03-02T01:48:18;4.75;;;3.30;;
40755;SDS011;26461;45.630;9.418;2024-03-02T01:51:28;3.42;;;2.42;;
40755;SDS011;26461;45.630;9.418;2024-03-02T01:54:38;3.13;;;2.28;;
40755;SDS011;26461;45.630;9.418;2024-03-02T01:57:48;3.75;;;3.08;;
40755;SDS011;26461;45.630;9.418;2024-03-02T02:01:03;4.78;;;3.33;;
40755;SDS011;26461;45.630;9.418;2024-03-02T02:04:13;3.83;;;2.55;;
40755;SDS011;26461;45.630;9.418;2024-03-02T02:07:23;4.53;;;3.10;;
40755;SDS011;26461;45.630;9.418;2024-03-02T02:10:33;3.60;;;2.22;;
40755;SDS011;26461;45.630;9.418;2024-03-02T02:13:43;4.50;;;2.63;;
40755;SDS011;26461;45.630;9.418;2024-03-02T02:16:53;3.53;;;2.47;;
40755;SDS011;26461;45.630;9.418;2024-03-02T02:23:34;5.40;;;2.58;;
40755;SDS011;26461;45.630;9.418;2024-03-02T02:26:44;3.33;;;2.50;;
40755;SDS011;26461;45.630;9.418;2024-03-02T02:29:55;3.70;;;2.20;;
40755;SDS011;26461;45.630;9.418;2024-03-02T02:33:06;3.25;;;2.40;;
40755;SDS011;26461;45.630;9.418;2024-03-02T02:36:16;3.63;;;2.53;;
40755;SDS011;26461;45.630;9.418;2024-03-02T02:39:21;3.28;;;2.30;;
40755;SDS011;26461;45.630;9.418;2024-03-02T02:42:27;3.58;;;2.58;;
40755;SDS011;26461;45.630;9.418;2024-03-02T02:45:39;3.28;;;2.40;;
40755;SDS011;26461;45.630;9.418;2024-03-02T02:48:44;5.15;;;2.70;;
40755;SDS011;26461;45.630;9.418;2024-03-02T02:51:55;3.45;;;2.63;;
40755;SDS011;26461;45.630;9.418;2024-03-02T02:55:06;6.20;;;3.22;;
40755;SDS011;26461;45.630;9.418;2024-03-02T02:58:17;4.45;;;3.10;;
40755;SDS011;26461;45.630;9.418;2024-03-02T03:01:28;4.45;;;3.25;;
40755;SDS011;26461;45.630;9.418;2024-03-02T03:04:39;4.68;;;2.60;;
40755;SDS011;26461;45.630;9.418;2024-03-02T03:07:50;3.78;;;2.35;;
40755;SDS011;26461;45.630;9.418;2024-03-02T03:10:55;3.90;;;3.05;;
40755;SDS011;26461;45.630;9.418;2024-03-02T03:14:05;3.00;;;2.78;;
40755;SDS011;26461;45.630;9.418;2024-03-02T03:17:15;4.38;;;2.88;;
40755;SDS011;26461;45.630;9.418;2024-03-02T03:20:22;3.45;;;2.65;;
40755;SDS011;26461;45.630;9.418;2024-03-02T03:23:33;3.63;;;2.70;;
40755;SDS011;26461;45.630;9.418;2024-03-02T03:26:43;3.35;;;2.90;;
40755;SDS011;26461;45.630;9.418;2024-03-02T03:29:53;3.28;;;2.90;;
40755;SDS011;26461;45.630;9.418;2024-03-02T03:33:04;3.70;;;2.85;;
40755;SDS011;26461;45.630;9.418;2024-03-02T03:36:18;7.88;;;3.08;;
40755;SDS011;26461;45.630;9.418;2024-03-02T03:39:23;3.75;;;3.08;;
40755;SDS011;26461;45.630;9.418;2024-03-02T03:42:34;3.42;;;2.65;;
40755;SDS011;26461;45.630;9.418;2024-03-02T03:45:44;4.20;;;2.88;;
40755;SDS011;26461;45.630;9.418;2024-03-02T03:48:54;4.25;;;2.95;;
40755;SDS011;26461;45.630;9.418;2024-03-02T03:52:00;4.15;;;3.03;;
40755;SDS011;26461;45.630;9.418;2024-03-02T03:55:10;6.47;;;3.80;;
40755;SDS011;26461;45.630;9.418;2024-03-02T03:58:21;4.38;;;3.20;;
40755;SDS011;26461;45.630;9.418;2024-03-02T04:01:31;4.50;;;2.80;;
40755;SDS011;26461;45.630;9.418;2024-03-02T04:04:41;5.43;;;3.33;;
40755;SDS011;26461;45.630;9.418;2024-03-02T04:07:53;3.90;;;2.88;;
40755;SDS011;26461;45.630;9.418;2024-03-02T04:11:03;8.85;;;4.80;;
40755;SDS011;26461;45.630;9.418;2024-03-02T04:14:14;5.93;;;3.85;;
40755;SDS011;26461;45.630;9.418;2024-03-02T04:17:19;4.32;;;3.70;;
40755;SDS011;26461;45.630;9.418;2024-03-02T04:20:30;6.30;;;3.35;;
40755;SDS011;26461;45.630;9.418;2024-03-02T04:23:40;4.72;;;3.60;;
40755;SDS011;26461;45.630;9.418;2024-03-02T04:26:50;4.78;;;3.55;;
40755;SDS011;26461;45.630;9.418;2024-03-02T04:30:01;4.18;;;3.35;;
40755;SDS011;26461;45.630;9.418;2024-03-02T04:33:06;4.22;;;3.40;;
40755;SDS011;26461;45.630;9.418;2024-03-02T04:36:19;5.13;;;3.75;;
40755;SDS011;26461;45.630;9.418;2024-03-02T04:39:25;4.80;;;3.83;;
40755;SDS011;26461;45.630;9.418;2024-03-02T04:42:31;4.53;;;3.75;;
40755;SDS011;26461;45.630;9.418;2024-03-02T04:45:41;4.13;;;3.42;;
40755;SDS011;26461;45.630;9.418;2024-03-02T04:48:52;3.95;;;3.38;;
40755;SDS011;26461;45.630;9.418;2024-03-02T04:52:05;4.15;;;3.78;;
40755;SDS011;26461;45.630;9.418;2024-03-02T04:55:15;3.85;;;2.90;;
40755;SDS011;26461;45.630;9.418;2024-03-02T04:58:20;5.00;;;3.53;;
40755;SDS011;26461;45.630;9.418;2024-03-02T05:01:43;3.58;;;3.35;;
40755;SDS011;26461;45.630;9.418;2024-03-02T05:04:53;4.30;;;3.40;;
40755;SDS011;26461;45.630;9.418;2024-03-02T05:07:59;7.65;;;4.70;;
40755;SDS011;26461;45.630;9.418;2024-03-02T05:11:09;4.07;;;3.65;;
40755;SDS011;26461;45.630;9.418;2024-03-02T05:14:55;3.80;;;2.88;;
40755;SDS011;26461;45.630;9.418;2024-03-02T05:18:06;3.95;;;3.40;;
40755;SDS011;26461;45.630;9.418;2024-03-02T05:21:17;6.07;;;3.30;;
40755;SDS011;26461;45.630;9.418;2024-03-02T05:24:22;20.70;;;13.73;;
40755;SDS011;26461;45.630;9.418;2024-03-02T05:27:31;22.65;;;14.13;;
40755;SDS011;26461;45.630;9.418;2024-03-02T05:30:44;11.98;;;8.82;;
40755;SDS011;26461;45.630;9.418;2024-03-02T05:33:54;13.65;;;7.43;;
40755;SDS011;26461;45.630;9.418;2024-03-02T05:37:05;8.10;;;5.82;;
40755;SDS011;26461;45.630;9.418;2024-03-02T05:40:15;8.30;;;5.82;;
40755;SDS011;26461;45.630;9.418;2024-03-02T05:43:25;5.75;;;4.60;;
40755;SDS011;26461;45.630;9.418;2024-03-02T05:46:35;5.70;;;4.72;;
40755;SDS011;26461;45.630;9.418;2024-03-02T05:49:46;7.53;;;5.63;;
40755;SDS011;26461;45.630;9.418;2024-03-02T05:52:56;6.85;;;5.07;;
40755;SDS011;26461;45.630;9.418;2024-03-02T05:56:10;6.85;;;5.07;;
40755;SDS011;26461;45.630;9.418;2024-03-02T05:59:21;12.27;;;7.40;;
40755;SDS011;26461;45.630;9.418;2024-03-02T06:02:31;9.90;;;6.32;;
40755;SDS011;26461;45.630;9.418;2024-03-02T06:05:36;14.27;;;8.95;;
40755;SDS011;26461;45.630;9.418;2024-03-02T06:08:46;51.28;;;23.33;;
40755;SDS011;26461;45.630;9.418;2024-03-02T06:11:52;38.00;;;18.73;;
40755;SDS011;26461;45.630;9.418;2024-03-02T06:14:57;27.80;;;16.13;;
40755;SDS011;26461;45.630;9.418;2024-03-02T06:18:07;18.48;;;12.80;;
40755;SDS011;26461;45.630;9.418;2024-03-02T06:21:17;20.17;;;11.38;;
40755;SDS011;26461;45.630;9.418;2024-03-02T06:24:28;18.83;;;11.57;;
40755;SDS011;26461;45.630;9.418;2024-03-02T06:27:38;13.38;;;9.43;;
40755;SDS011;26461;45.630;9.418;2024-03-02T06:30:49;10.20;;;6.65;;
40755;SDS011;26461;45.630;9.418;2024-03-02T06:33:59;12.05;;;7.22;;
40755;SDS011;26461;45.630;9.418;2024-03-02T06:37:04;7.88;;;5.28;;
40755;SDS011;26461;45.630;9.418;2024-03-02T06:40:14;5.63;;;4.97;;
40755;SDS011;26461;45.630;9.418;2024-03-02T06:43:24;9.23;;;5.60;;
40755;SDS011;26461;45.630;9.418;2024-03-02T06:46:34;7.30;;;4.47;;
40755;SDS011;26461;45.630;9.418;2024-03-02T06:49:45;8.07;;;4.65;;
40755;SDS011;26461;45.630;9.418;2024-03-02T06:52:55;6.70;;;5.18;;
40755;SDS011;26461;45.630;9.418;2024-03-02T06:56:06;9.55;;;6.63;;
40755;SDS011;26461;45.630;9.418;2024-03-02T06:59:17;7.20;;;4.55;;
40755;SDS011;26461;45.630;9.418;2024-03-02T07:02:29;7.95;;;5.75;;
40755;SDS011;26461;45.630;9.418;2024-03-02T07:05:39;6.07;;;5.57;;
40755;SDS011;26461;45.630;9.418;2024-03-02T07:08:50;10.57;;;6.40;;
40755;SDS011;26461;45.630;9.418;2024-03-02T07:12:00;6.97;;;5.60;;
40755;SDS011;26461;45.630;9.418;2024-03-02T07:15:06;8.75;;;5.57;;
40755;SDS011;26461;45.630;9.418;2024-03-02T07:18:17;8.45;;;6.15;;
40755;SDS011;26461;45.630;9.418;2024-03-02T07:21:27;14.27;;;5.70;;
40755;SDS011;26461;45.630;9.418;2024-03-02T07:24:41;8.68;;;6.90;;
40755;SDS011;26461;45.630;9.418;2024-03-02T07:27:47;8.63;;;6.07;;
40755;SDS011;26461;45.630;9.418;2024-03-02T07:30:59;8.93;;;7.32;;
40755;SDS011;26461;45.630;9.418;2024-03-02T07:34:14;9.90;;;5.95;;
40755;SDS011;26461;45.630;9.418;2024-03-02T07:37:24;7.25;;;6.70;;
40755;SDS011;26461;45.630;9.418;2024-03-02T07:40:34;7.50;;;5.75;;
40755;SDS011;26461;45.630;9.418;2024-03-02T07:43:45;12.27;;;6.18;;
40755;SDS011;26461;45.630;9.418;2024-03-02T07:46:55;8.55;;;6.25;;
40755;SDS011;26461;45.630;9.418;2024-03-02T07:50:00;7.20;;;5.55;;
40755;SDS011;26461;45.630;9.418;2024-03-02T07:53:10;7.70;;;5.80;;
40755;SDS011;26461;45.630;9.418;2024-03-02T07:56:21;10.65;;;5.90;;
40755;SDS011;26461;45.630;9.418;2024-03-02T07:59:27;9.73;;;4.50;;
40755;SDS011;26461;45.630;9.418;2024-03-02T08:02:37;9.27;;;4.50;;
40755;SDS011;26461;45.630;9.418;2024-03-02T08:05:42;5.85;;;4.38;;
40755;SDS011;26461;45.630;9.418;2024-03-02T08:08:55;8.57;;;4.78;;
40755;SDS011;26461;45.630;9.418;2024-03-02T08:12:08;8.73;;;4.65;;
40755;SDS011;26461;45.630;9.418;2024-03-02T08:15:19;8.30;;;4.00;;
40755;SDS011;26461;45.630;9.418;2024-03-02T08:18:24;6.70;;;4.60;;
40755;SDS011;26461;45.630;9.418;2024-03-02T08:21:34;5.82;;;3.45;;
40755;SDS011;26461;45.630;9.418;2024-03-02T08:24:40;8.57;;;3.92;;
40755;SDS011;26461;45.630;9.418;2024-03-02T08:27:46;7.40;;;4.60;;
40755;SDS011;26461;45.630;9.418;2024-03-02T08:30:56;6.82;;;4.40;;
40755;SDS011;26461;45.630;9.418;2024-03-02T08:34:01;14.02;;;4.65;;
40755;SDS011;26461;45.630;9.418;2024-03-02T08:37:06;4.97;;;3.65;;
40755;SDS011;26461;45.630;9.418;2024-03-02T08:40:12;6.65;;;4.28;;
40755;SDS011;26461;45.630;9.418;2024-03-02T08:43:23;4.90;;;3.97;;
40755;SDS011;26461;45.630;9.418;2024-03-02T08:46:34;7.03;;;4.22;;
40755;SDS011;26461;45.630;9.418;2024-03-02T08:49:44;5.57;;;4.45;;
40755;SDS011;26461;45.630;9.418;2024-03-02T08:52:55;6.78;;;4.05;;
40755;SDS011;26461;45.630;9.418;2024-03-02T08:56:05;7.25;;;4.10;;
40755;SDS011;26461;45.630;9.418;2024-03-02T08:59:11;4.78;;;3.65;;
40755;SDS011;26461;45.630;9.418;2024-03-02T09:02:22;6.00;;;3.92;;
40755;SDS011;26461;45.630;9.418;2024-03-02T09:05:32;4.70;;;3.38;;
40755;SDS011;26461;45.630;9.418;2024-03-02T09:08:43;13.35;;;4.50;;
40755;SDS011;26461;45.630;9.418;2024-03-02T09:11:53;5.65;;;4.15;;
40755;SDS011;26461;45.630;9.418;2024-03-02T09:15:07;7.10;;;4.13;;
40755;SDS011;26461;45.630;9.418;2024-03-02T09:18:17;9.38;;;3.40;;
40755;SDS011;26461;45.630;9.418;2024-03-02T09:21:28;7.00;;;4.20;;
40755;SDS011;26461;45.630;9.418;2024-03-02T09:24:34;5.88;;;4.03;;
40755;SDS011;26461;45.630;9.418;2024-03-02T09:27:44;4.25;;;3.90;;
40755;SDS011;26461;45.630;9.418;2024-03-02T09:30:54;9.85;;;3.55;;
40755;SDS011;26461;45.630;9.418;2024-03-02T09:34:00;4.18;;;3.58;;
40755;SDS011;26461;45.630;9.418;2024-03-02T09:37:10;7.93;;;3.70;;
40755;SDS011;26461;45.630;9.418;2024-03-02T09:40:21;5.18;;;3.95;;
40755;SDS011;26461;45.630;9.418;2024-03-02T09:43:32;7.10;;;3.90;;
40755;SDS011;26461;45.630;9.418;2024-03-02T09:46:37;4.68;;;3.70;;
40755;SDS011;26461;45.630;9.418;2024-03-02T09:49:48;7.78;;;4.72;;
40755;SDS011;26461;45.630;9.418;2024-03-02T09:52:59;13.73;;;4.43;;
40755;SDS011;26461;45.630;9.418;2024-03-02T09:56:09;7.75;;;4.80;;
40755;SDS011;26461;45.630;9.418;2024-03-02T09:59:20;7.53;;;4.65;;
40755;SDS011;26461;45.630;9.418;2024-03-02T10:02:30;5.53;;;4.43;;
40755;SDS011;26461;45.630;9.418;2024-03-02T10:05:41;6.43;;;5.30;;
40755;SDS011;26461;45.630;9.418;2024-03-02T10:08:52;6.53;;;4.32;;
40755;SDS011;26461;45.630;9.418;2024-03-02T10:12:07;6.32;;;5.40;;
40755;SDS011;26461;45.630;9.418;2024-03-02T10:15:23;11.75;;;6.50;;
40755;SDS011;26461;45.630;9.418;2024-03-02T10:18:29;7.60;;;5.95;;
40755;SDS011;26461;45.630;9.418;2024-03-02T10:21:34;9.43;;;6.82;;
40755;SDS011;26461;45.630;9.418;2024-03-02T10:24:44;7.43;;;5.28;;
40755;SDS011;26461;45.630;9.418;2024-03-02T10:27:56;7.95;;;5.95;;
40755;SDS011;26461;45.630;9.418;2024-03-02T10:31:08;8.85;;;5.32;;
40755;SDS011;26461;45.630;9.418;2024-03-02T10:34:14;10.52;;;5.40;;
40755;SDS011;26461;45.630;9.418;2024-03-02T10:37:29;8.63;;;4.70;;
40755;SDS011;26461;45.630;9.418;2024-03-02T10:40:34;10.57;;;7.15;;
40755;SDS011;26461;45.630;9.418;2024-03-02T10:43:45;4.95;;;4.35;;
40755;SDS011;26461;45.630;9.418;2024-03-02T10:46:51;6.15;;;5.40;;
40755;SDS011;26461;45.630;9.418;2024-03-02T10:49:59;5.78;;;4.07;;
40755;SDS011;26461;45.630;9.418;2024-03-02T10:53:11;8.40;;;4.75;;
40755;SDS011;26461;45.630;9.418;2024-03-02T10:59:52;5.85;;;4.22;;
40755;SDS011;26461;45.630;9.418;2024-03-02T11:03:06;7.78;;;4.45;;
40755;SDS011;26461;45.630;9.418;2024-03-02T11:06:15;7.53;;;4.72;;
40755;SDS011;26461;45.630;9.418;2024-03-02T11:09:27;11.93;;;4.65;;
40755;SDS011;26461;45.630;9.418;2024-03-02T11:12:48;8.85;;;4.35;;
40755;SDS011;26461;45.630;9.418;2024-03-02T11:16:12;6.25;;;4.95;;
40755;SDS011;26461;45.630;9.418;2024-03-02T11:19:39;7.55;;;5.25;;
40755;SDS011;26461;45.630;9.418;2024-03-02T11:22:51;9.20;;;5.40;;
40755;SDS011;26461;45.630;9.418;2024-03-02T11:26:12;6.50;;;5.30;;
40755;SDS011;26461;45.630;9.418;2024-03-02T11:32:41;8.05;;;4.70;;
40755;SDS011;26461;45.630;9.418;2024-03-02T11:35:51;5.07;;;4.13;;
40755;SDS011;26461;45.630;9.418;2024-03-02T11:39:01;6.60;;;4.75;;
40755;SDS011;26461;45.630;9.418;2024-03-02T11:42:10;5.63;;;3.90;;
40755;SDS011;26461;45.630;9.418;2024-03-02T11:45:25;7.65;;;4.95;;
40755;SDS011;26461;45.630;9.418;2024-03-02T11:48:36;5.20;;;4.45;;
40755;SDS011;26461;45.630;9.418;2024-03-02T11:52:00;7.35;;;4.60;;
40755;SDS011;26461;45.630;9.418;2024-03-02T11:55:16;7.88;;;4.90;;
40755;SDS011;26461;45.630;9.418;2024-03-02T11:58:29;6.25;;;4.15;;
40755;SDS011;26461;45.630;9.418;2024-03-02T12:01:40;8.32;;;4.45;;
40755;SDS011;26461;45.630;9.418;2024-03-02T12:04:53;6.30;;;3.88;;
40755;SDS011;26461;45.630;9.418;2024-03-02T12:08:04;6.75;;;3.80;;
40755;SDS011;26461;45.630;9.418;2024-03-02T12:11:12;4.18;;;3.25;;
40755;SDS011;26461;45.630;9.418;2024-03-02T12:14:23;12.88;;;4.20;;
40755;SDS011;26461;45.630;9.418;2024-03-02T12:17:33;5.82;;;3.30;;
40755;SDS011;26461;45.630;9.418;2024-03-02T12:20:43;4.32;;;3.40;;
40755;SDS011;26461;45.630;9.418;2024-03-02T12:23:53;4.85;;;3.50;;
40755;SDS011;26461;45.630;9.418;2024-03-02T12:27:04;8.82;;;4.20;;
40755;SDS011;26461;45.630;9.418;2024-03-02T12:30:10;4.68;;;3.38;;
40755;SDS011;26461;45.630;9.418;2024-03-02T12:33:16;5.45;;;3.65;;
40755;SDS011;26461;45.630;9.418;2024-03-02T12:36:26;4.80;;;3.78;;
40755;SDS011;26461;45.630;9.418;2024-03-02T12:39:37;4.38;;;3.00;;
40755;SDS011;26461;45.630;9.418;2024-03-02T12:42:47;3.25;;;3.00;;
40755;SDS011;26461;45.630;9.418;2024-03-02T12:45:53;4.97;;;3.58;;
40755;SDS011;26461;45.630;9.418;2024-03-02T12:49:12;4.30;;;2.85;;
40755;SDS011;26461;45.630;9.418;2024-03-02T12:52:23;3.90;;;2.83;;
40755;SDS011;26461;45.630;9.418;2024-03-02T12:55:31;7.68;;;3.45;;
40755;SDS011;26461;45.630;9.418;2024-03-02T12:58:40;5.22;;;3.28;;
40755;SDS011;26461;45.630;9.418;2024-03-02T13:01:53;3.35;;;2.80;;
40755;SDS011;26461;45.630;9.418;2024-03-02T13:05:07;4.80;;;2.90;;
40755;SDS011;26461;45.630;9.418;2024-03-02T13:08:23;3.88;;;3.08;;
40755;SDS011;26461;45.630;9.418;2024-03-02T13:11:34;3.75;;;3.50;;
40755;SDS011;26461;45.630;9.418;2024-03-02T13:14:48;5.25;;;3.50;;
40755;SDS011;26461;45.630;9.418;2024-03-02T13:18:00;5.13;;;3.50;;
40755;SDS011;26461;45.630;9.418;2024-03-02T13:21:05;4.45;;;3.40;;
40755;SDS011;26461;45.630;9.418;2024-03-02T13:24:16;6.57;;;4.05;;
40755;SDS011;26461;45.630;9.418;2024-03-02T13:27:21;4.70;;;3.40;;
40755;SDS011;26461;45.630;9.418;2024-03-02T13:30:32;4.78;;;3.95;;
40755;SDS011;26461;45.630;9.418;2024-03-02T13:33:37;4.47;;;3.80;;
40755;SDS011;26461;45.630;9.418;2024-03-02T13:36:48;5.03;;;3.38;;
40755;SDS011;26461;45.630;9.418;2024-03-02T13:39:58;5.20;;;4.25;;
40755;SDS011;26461;45.630;9.418;2024-03-02T13:43:08;5.05;;;3.60;;
40755;SDS011;26461;45.630;9.418;2024-03-02T13:46:14;5.80;;;4.72;;
40755;SDS011;26461;45.630;9.418;2024-03-02T13:49:24;5.75;;;4.80;;
40755;SDS011;26461;45.630;9.418;2024-03-02T13:52:38;4.88;;;4.18;;
40755;SDS011;26461;45.630;9.418;2024-03-02T13:55:49;6.88;;;5.40;;
40755;SDS011;26461;45.630;9.418;2024-03-02T13:58:59;6.35;;;4.90;;
40755;SDS011;26461;45.630;9.418;2024-03-02T14:02:09;6.25;;;3.78;;
40755;SDS011;26461;45.630;9.418;2024-03-02T14:05:21;7.57;;;5.03;;
40755;SDS011;26461;45.630;9.418;2024-03-02T14:08:27;5.85;;;4.55;;
40755;SDS011;26461;45.630;9.418;2024-03-02T14:11:37;5.65;;;4.80;;
40755;SDS011;26461;45.630;9.418;2024-03-02T14:14:47;7.70;;;4.45;;
40755;SDS011;26461;45.630;9.418;2024-03-02T14:17:55;5.35;;;4.60;;
40755;SDS011;26461;45.630;9.418;2024-03-02T14:21:06;7.78;;;4.93;;
40755;SDS011;26461;45.630;9.418;2024-03-02T14:24:11;6.68;;;4.95;;
40755;SDS011;26461;45.630;9.418;2024-03-02T14:27:21;7.50;;;4.40;;
40755;SDS011;26461;45.630;9.418;2024-03-02T14:30:31;8.50;;;4.90;;
40755;SDS011;26461;45.630;9.418;2024-03-02T14:33:43;6.15;;;4.43;;
40755;SDS011;26461;45.630;9.418;2024-03-02T14:36:54;7.50;;;4.28;;
40755;SDS011;26461;45.630;9.418;2024-03-02T14:40:05;7.80;;;5.13;;
40755;SDS011;26461;45.630;9.418;2024-03-02T14:43:16;5.63;;;4.18;;
40755;SDS011;26461;45.630;9.418;2024-03-02T14:46:26;4.65;;;3.65;;
40755;SDS011;26461;45.630;9.418;2024-03-02T14:49:32;4.25;;;3.30;;
40755;SDS011;26461;45.630;9.418;2024-03-02T14:52:45;4.18;;;3.47;;
40755;SDS011;26461;45.630;9.418;2024-03-02T14:55:56;7.50;;;4.03;;
40755;SDS011;26461;45.630;9.418;2024-03-02T14:59:06;5.80;;;3.17;;
40755;SDS011;26461;45.630;9.418;2024-03-02T15:02:11;7.00;;;3.90;;
40755;SDS011;26461;45.630;9.418;2024-03-02T15:05:21;4.72;;;3.53;;
40755;SDS011;26461;45.630;9.418;2024-03-02T15:08:31;6.30;;;3.47;;
40755;SDS011;26461;45.630;9.418;2024-03-02T15:11:37;5.25;;;3.40;;
40755;SDS011;26461;45.630;9.418;2024-03-02T15:14:48;5.88;;;2.70;;
40755;SDS011;26461;45.630;9.418;2024-03-02T15:17:58;4.97;;;3.40;;
40755;SDS011;26461;45.630;9.418;2024-03-02T15:21:08;3.90;;;2.92;;
40755;SDS011;26461;45.630;9.418;2024-03-02T15:24:19;4.55;;;3.05;;
40755;SDS011;26461;45.630;9.418;2024-03-02T15:27:29;5.10;;;3.65;;
40755;SDS011;26461;45.630;9.418;2024-03-02T15:30:40;3.42;;;2.63;;
40755;SDS011;26461;45.630;9.418;2024-03-02T15:33:46;4.03;;;3.20;;
40755;SDS011;26461;45.630;9.418;2024-03-02T15:36:56;3.40;;;2.80;;
40755;SDS011;26461;45.630;9.418;2024-03-02T15:40:01;3.67;;;3.33;;
40755;SDS011;26461;45.630;9.418;2024-03-02T15:43:15;4.60;;;3.40;;
40755;SDS011;26461;45.630;9.418;2024-03-02T15:46:20;3.90;;;2.95;;
40755;SDS011;26461;45.630;9.418;2024-03-02T15:49:31;4.45;;;3.42;;
40755;SDS011;26461;45.630;9.418;2024-03-02T15:52:36;4.50;;;3.03;;
40755;SDS011;26461;45.630;9.418;2024-03-02T15:55:47;4.70;;;3.35;;
40755;SDS011;26461;45.630;9.418;2024-03-02T15:58:52;4.43;;;3.28;;
40755;SDS011;26461;45.630;9.418;2024-03-02T16:02:03;4.40;;;3.38;;
40755;SDS011;26461;45.630;9.418;2024-03-02T16:05:13;4.70;;;4.30;;
40755;SDS011;26461;45.630;9.418;2024-03-02T16:08:24;4.45;;;4.15;;
40755;SDS011;26461;45.630;9.418;2024-03-02T16:11:35;8.13;;;4.10;;
40755;SDS011;26461;45.630;9.418;2024-03-02T16:14:45;4.55;;;3.35;;
40755;SDS011;26461;45.630;9.418;2024-03-02T16:17:56;3.65;;;3.25;;
40755;SDS011;26461;45.630;9.418;2024-03-02T16:21:08;4.80;;;3.90;;
40755;SDS011;26461;45.630;9.418;2024-03-02T16:24:18;4.30;;;3.00;;
40755;SDS011;26461;45.630;9.418;2024-03-02T16:27:28;5.78;;;4.28;;
40755;SDS011;26461;45.630;9.418;2024-03-02T16:30:39;5.57;;;3.70;;
40755;SDS011;26461;45.630;9.418;2024-03-02T16:33:49;4.45;;;3.47;;
40755;SDS011;26461;45.630;9.418;2024-03-02T16:36:54;7.18;;;3.78;;
40755;SDS011;26461;45.630;9.418;2024-03-02T16:40:05;4.43;;;3.75;;
40755;SDS011;26461;45.630;9.418;2024-03-02T16:43:16;5.15;;;3.90;;
40755;SDS011;26461;45.630;9.418;2024-03-02T16:46:22;5.63;;;4.45;;
40755;SDS011;26461;45.630;9.418;2024-03-02T16:49:32;3.90;;;3.20;;
40755;SDS011;26461;45.630;9.418;2024-03-02T16:52:43;4.93;;;3.55;;
40755;SDS011;26461;45.630;9.418;2024-03-02T16:55:52;10.30;;;5.03;;
40755;SDS011;26461;45.630;9.418;2024-03-02T16:59:03;5.85;;;3.95;;
40755;SDS011;26461;45.630;9.418;2024-03-02T17:02:08;5.95;;;3.83;;
40755;SDS011;26461;45.630;9.418;2024-03-02T17:05:22;6.20;;;4.28;;
40755;SDS011;26461;45.630;9.418;2024-03-02T17:08:32;5.70;;;4.68;;
40755;SDS011;26461;45.630;9.418;2024-03-02T17:11:42;4.05;;;3.85;;
40755;SDS011;26461;45.630;9.418;2024-03-02T17:14:53;4.95;;;4.15;;
40755;SDS011;26461;45.630;9.418;2024-03-02T17:18:04;9.45;;;5.43;;
40755;SDS011;26461;45.630;9.418;2024-03-02T17:21:15;7.80;;;4.93;;
40755;SDS011;26461;45.630;9.418;2024-03-02T17:24:28;7.55;;;5.03;;
40755;SDS011;26461;45.630;9.418;2024-03-02T17:27:38;6.93;;;5.13;;
40755;SDS011;26461;45.630;9.418;2024-03-02T17:30:44;8.40;;;5.55;;
40755;SDS011;26461;45.630;9.418;2024-03-02T17:33:54;7.57;;;4.38;;
40755;SDS011;26461;45.630;9.418;2024-03-02T17:37:04;7.00;;;5.13;;
40755;SDS011;26461;45.630;9.418;2024-03-02T17:40:09;7.57;;;5.22;;
40755;SDS011;26461;45.630;9.418;2024-03-02T17:43:21;7.43;;;4.45;;
40755;SDS011;26461;45.630;9.418;2024-03-02T17:46:31;5.85;;;4.70;;
40755;SDS011;26461;45.630;9.418;2024-03-02T17:49:41;6.85;;;5.00;;
40755;SDS011;26461;45.630;9.418;2024-03-02T17:52:51;6.57;;;4.45;;
40755;SDS011;26461;45.630;9.418;2024-03-02T17:56:04;4.47;;;3.55;;
40755;SDS011;26461;45.630;9.418;2024-03-02T17:59:15;7.88;;;5.35;;
40755;SDS011;26461;45.630;9.418;2024-03-02T18:02:20;5.55;;;4.35;;
40755;SDS011;26461;45.630;9.418;2024-03-02T18:05:31;7.75;;;5.63;;
40755;SDS011;26461;45.630;9.418;2024-03-02T18:08:37;6.35;;;5.32;;
40755;SDS011;26461;45.630;9.418;2024-03-02T18:11:47;6.88;;;5.68;;
40755;SDS011;26461;45.630;9.418;2024-03-02T18:14:58;6.32;;;5.13;;
40755;SDS011;26461;45.630;9.418;2024-03-02T18:18:03;5.57;;;4.97;;
40755;SDS011;26461;45.630;9.418;2024-03-02T18:21:14;5.68;;;4.90;;
40755;SDS011;26461;45.630;9.418;2024-03-02T18:24:25;6.10;;;5.40;;
40755;SDS011;26461;45.630;9.418;2024-03-02T18:27:38;6.47;;;5.30;;
40755;SDS011;26461;45.630;9.418;2024-03-02T18:30:48;6.38;;;5.50;;
40755;SDS011;26461;45.630;9.418;2024-03-02T18:33:58;9.68;;;7.03;;
40755;SDS011;26461;45.630;9.418;2024-03-02T18:37:08;6.97;;;6.03;;
40755;SDS011;26461;45.630;9.418;2024-03-02T18:40:19;7.30;;;5.97;;
40755;SDS011;26461;45.630;9.418;2024-03-02T18:43:30;10.25;;;7.20;;
40755;SDS011;26461;45.630;9.418;2024-03-02T18:46:40;9.18;;;6.18;;
40755;SDS011;26461;45.630;9.418;2024-03-02T18:49:51;8.85;;;6.53;;
40755;SDS011;26461;45.630;9.418;2024-03-02T18:53:04;9.73;;;6.32;;
40755;SDS011;26461;45.630;9.418;2024-03-02T18:56:16;7.63;;;5.53;;
40755;SDS011;26461;45.630;9.418;2024-03-02T18:59:26;9.38;;;6.13;;
40755;SDS011;26461;45.630;9.418;2024-03-02T19:02:36;8.60;;;6.30;;
40755;SDS011;26461;45.630;9.418;2024-03-02T19:05:47;8.82;;;6.40;;
40755;SDS011;26461;45.630;9.418;2024-03-02T19:08:57;7.90;;;5.97;;
40755;SDS011;26461;45.630;9.418;2024-03-02T19:12:08;7.85;;;6.50;;